Yorktown, Virginia
Current Conditions -  °F | °C
As of 9:54 PM on Friday 28 Nov 2014 (Local Time) from KPHF Reporting Station
Clear Clear  
Wind Chill: 31°   Ceiling: Unl
Heat Index: 31°   Visibility: 8mi
Dew Point: 25°   Wind: 3mph
Humidity: 79%   Direction: 350°N
Pressure: 30.32"   Gusts: NA
Location:  37.24°N, 76.51°W
Report Text: KPHF 290254Z 35003KT 8SM CLR M01/M04 A3032 RMK AO2 SLP266 60000 T10061039 50004
Loading
Personal Weather Stations






























Interactive Weather Map New forecast layout! Learn more

10-Day Weather Forecast

Advertisements
Track Severe Weather on mobile